Time;durP1;ratioP1;P1;durP2;ratioP2;P2;SDS_P1;SDS_P2;PMS_P1;PMS_P2;Temp;Humidity;BMP_temperature;BMP_pressure;BME280_temperature;BME280_humidity;BME280_pressure;Samples;Min_cycle;Max_cycle;Signal;HPM_P1;HPM_P2
2021/06/01 00:02:03;;;;;;;2.50;2.30;;;;;;;13.26;51.19;101421.97;5001212;28;20040;-86
2021/06/01 00:04:29;;;;;;;2.15;2.05;;;;;;;13.23;51.53;101425.50;5014701;28;20500;-84
2021/06/01 00:06:55;;;;;;;3.80;2.78;;;;;;;13.20;51.47;101425.53;5029041;28;20430;-84
2021/06/01 00:09:29;;;;;;;3.08;2.33;;;;;;;13.17;51.17;101418.53;5015021;28;20061;-84
2021/06/01 00:11:56;;;;;;;;;;;;;;;13.15;51.97;101416.81;5025804;28;20075;-84
2021/06/01 00:14:22;;;;;;;2.90;2.28;;;;;;;13.15;51.14;101415.03;5027590;28;20408;-84
2021/06/01 00:16:50;;;;;;;2.83;2.30;;;;;;;13.15;51.37;101411.56;5028234;28;20541;-83
2021/06/01 00:19:17;;;;;;;3.20;1.92;;;;;;;13.17;51.59;101415.91;5041482;28;20589;-86
2021/06/01 00:21:45;;;;;;;2.42;2.22;;;;;;;13.16;51.69;101419.41;5023322;28;20045;-84
2021/06/01 00:24:14;;;;;;;3.53;2.78;;;;;;;13.13;51.87;101408.94;4998186;28;20056;-84
2021/06/01 00:26:43;;;;;;;2.78;2.10;;;;;;;13.07;52.01;101409.88;5029423;28;20107;-83
2021/06/01 00:29:10;;;;;;;2.38;2.10;;;;;;;13.02;52.18;101411.66;5031525;28;20049;-83
2021/06/01 00:31:37;;;;;;;3.20;2.45;;;;;;;13.01;52.51;101411.63;5028656;28;20057;-86
2021/06/01 00:34:04;;;;;;;1.90;1.48;;;;;;;13.00;52.50;101412.53;5032086;28;20052;-84
2021/06/01 00:36:34;;;;;;;2.75;1.45;;;;;;;12.98;52.52;101412.53;5011178;28;20151;-84
2021/06/01 00:39:01;;;;;;;2.40;2.20;;;;;;;12.94;52.54;101409.94;5044711;28;20057;-84
2021/06/01 00:41:33;;;;;;;4.63;2.45;;;;;;;12.91;52.55;101416.09;5014019;28;20051;-84
2021/06/01 00:44:03;;;;;;;3.17;2.42;;;;;;;12.87;52.99;101415.25;5005342;28;21489;-84
2021/06/01 00:46:33;;;;;;;1.95;1.75;;;;;;;12.82;52.92;101416.16;5011240;28;20048;-84
2021/06/01 00:49:05;;;;;;;4.38;2.50;;;;;;;12.71;54.03;101419.72;5030000;28;20044;-84
2021/06/01 00:51:33;;;;;;;4.55;2.60;;;;;;;12.61;54.54;101412.78;5027292;28;20055;-84
2021/06/01 00:54:07;;;;;;;3.45;2.42;;;;;;;12.52;55.11;101415.44;4999865;28;20049;-84
2021/06/01 00:56:37;;;;;;;2.88;2.33;;;;;;;12.43;55.48;101413.72;5033207;28;20044;-86
2021/06/01 00:59:04;;;;;;;3.60;2.90;;;;;;;12.35;55.45;101412.91;5030338;28;20053;-85
2021/06/01 01:01:31;;;;;;;6.45;3.88;;;;;;;12.30;55.69;101419.91;5045293;28;20044;-84
2021/06/01 01:03:59;;;;;;;5.93;2.95;;;;;;;12.23;55.75;101406.81;5039612;28;20045;-84
2021/06/01 01:06:55;;;;;;;5.45;3.15;;;;;;;12.18;55.99;101415.59;5006366;28;20099;-83
2021/06/01 01:09:22;;;;;;;3.22;2.60;;;;;;;12.13;55.94;101414.72;5027328;28;20056;-85
2021/06/01 01:12:00;;;;;;;8.38;3.67;;;;;;;12.13;56.68;101420.84;5029803;28;20088;-84
2021/06/01 01:14:31;;;;;;;7.97;4.38;;;;;;;12.12;57.70;101423.47;5027610;28;20160;-84
2021/06/01 01:18:08;;;;;;;6.22;4.28;;;;;;;12.07;58.73;101419.13;5014241;28;20108;-85
2021/06/01 01:20:53;;;;;;;8.38;3.95;;;;;;;12.05;59.00;101414.75;5028281;28;20116;-86
2021/06/01 01:23:29;;;;;;;5.82;3.15;;;;;;;12.05;58.74;101414.75;5030191;28;20041;-84
2021/06/01 01:26:06;;;;;;;4.80;2.60;;;;;;;12.03;58.60;101412.13;5030423;28;20041;-86
2021/06/01 01:29:15;;;;;;;5.38;3.47;;;;;;;11.99;59.34;101412.13;5004931;28;20056;-84
2021/06/01 01:31:51;;;;;;;5.35;3.30;;;;;;;11.93;58.90;101418.25;5041924;28;20049;-84
2021/06/01 01:34:18;;;;;;;4.82;3.35;;;;;;;11.91;58.71;101415.63;5022924;28;20045;-84
2021/06/01 01:36:47;;;;;;;7.72;4.07;;;;;;;11.92;59.29;101421.75;5029378;28;20045;-84
2021/06/01 01:39:18;;;;;;;4.90;2.70;;;;;;;11.89;59.04;101417.38;4992994;28;20057;-85
2021/06/01 01:41:45;;;;;;;3.50;3.20;;;;;;;11.87;59.04;101415.63;5014914;28;20053;-85
2021/06/01 01:44:15;;;;;;;3.45;2.80;;;;;;;11.86;59.38;101419.13;5002726;28;20052;-85
2021/06/01 01:46:58;;;;;;;7.40;3.25;;;;;;;11.86;59.57;101419.13;5029378;28;20049;-84
2021/06/01 01:49:25;;;;;;;2.63;2.10;;;;;;;11.82;59.00;101418.25;5032904;28;20048;-84
2021/06/01 01:51:58;;;;;;;3.72;2.72;;;;;;;11.75;59.50;101420.00;5027809;28;20296;-84
2021/06/01 01:54:29;;;;;;;3.63;2.00;;;;;;;11.70;59.14;101424.38;5049087;28;20061;-84
2021/06/01 01:57:09;;;;;;;8.82;2.90;;;;;;;11.65;59.64;101428.75;5017524;28;20044;-84
2021/06/01 01:59:36;;;;;;;4.18;2.35;;;;;;;11.59;59.90;101421.78;5026829;28;21064;-85
2021/06/01 02:02:03;;;;;;;2.78;2.08;;;;;;;11.51;59.81;101426.16;5015849;28;20435;-84
2021/06/01 02:04:31;;;;;;;2.47;2.28;;;;;;;11.48;60.32;101422.66;5028149;28;20041;-85
2021/06/01 02:06:59;;;;;;;4.35;2.42;;;;;;;11.42;60.10;101416.56;5048206;28;20454;-85
2021/06/01 02:09:26;;;;;;;3.50;2.55;;;;;;;11.37;60.39;101413.06;5032632;28;20174;-85
2021/06/01 02:11:54;;;;;;;2.03;1.90;;;;;;;11.34;60.47;101410.44;5040909;28;20095;-84
2021/06/01 02:14:22;;;;;;;2.38;2.15;;;;;;;11.33;61.16;101416.56;5031999;28;20072;-85
2021/06/01 02:16:52;;;;;;;4.28;2.90;;;;;;;11.28;61.14;101415.69;5028672;28;20056;-84
2021/06/01 02:19:21;;;;;;;3.03;2.83;;;;;;;11.25;61.63;101413.03;5032279;28;20049;-85
2021/06/01 02:22:20;;;;;;;6.57;3.17;;;;;;;11.23;62.56;101407.78;5015274;28;20075;-86
2021/06/01 02:24:58;;;;;;;3.25;2.58;;;;;;;11.25;62.53;101405.16;5017309;28;20041;-86
2021/06/01 02:27:38;;;;;;;12.82;4.50;;;;;;;11.26;63.24;101404.31;5032475;28;20085;-86
2021/06/01 02:30:19;;;;;;;6.03;3.17;;;;;;;11.25;62.99;101399.94;5025980;28;20029;-86
2021/06/01 02:32:56;;;;;;;3.63;2.88;;;;;;;11.19;63.09;101398.19;5047364;28;20057;-86
2021/06/01 02:35:40;;;;;;;3.45;2.80;;;;;;;11.17;63.74;101402.56;5048093;28;20083;-86
2021/06/01 02:38:09;;;;;;;6.67;3.30;;;;;;;11.11;64.04;101399.94;5006636;28;20056;-86
2021/06/01 02:40:38;;;;;;;3.83;2.97;;;;;;;11.06;64.63;101399.06;5031621;28;20052;-86
2021/06/01 02:43:12;;;;;;;5.05;3.25;;;;;;;10.98;64.99;101400.81;5028877;28;20462;-85
2021/06/01 02:45:42;;;;;;;3.90;2.70;;;;;;;10.92;65.46;101410.41;5030528;28;20049;-86
2021/06/01 02:48:12;;;;;;;6.32;3.53;;;;;;;10.89;66.07;101399.03;5043562;28;20199;-85
2021/06/01 02:50:41;;;;;;;3.45;2.78;;;;;;;10.84;66.53;101401.63;5028312;28;20089;-86
2021/06/01 02:53:09;;;;;;;5.32;2.90;;;;;;;10.80;65.91;101399.88;4997460;28;21231;-86
2021/06/01 02:55:35;;;;;;;3.10;2.75;;;;;;;10.75;66.47;101401.63;5032381;28;20045;-86
2021/06/01 02:58:03;;;;;;;5.20;2.92;;;;;;;10.70;66.69;101395.50;5013724;28;20056;-86
2021/06/01 03:00:31;;;;;;;4.35;3.05;;;;;;;10.66;66.97;101392.00;5010564;28;20046;-86
2021/06/01 03:03:14;;;;;;;2.25;2.05;;;;;;;10.63;67.05;101391.13;5032339;28;20049;-85
2021/06/01 03:05:41;;;;;;;6.30;3.53;;;;;;;10.58;67.01;101391.97;5028678;28;20385;-85
2021/06/01 03:08:21;;;;;;;5.15;2.85;;;;;;;10.54;67.10;101390.22;5015707;28;20070;-85
2021/06/01 03:10:48;;;;;;;4.45;2.35;;;;;;;10.52;67.14;101389.34;5030864;28;20044;-85
2021/06/01 03:13:16;;;;;;;6.72;2.60;;;;;;;10.47;67.09;101385.84;5011350;28;20601;-85
2021/06/01 03:15:43;;;;;;;3.40;1.80;;;;;;;10.43;67.58;101386.72;4978345;28;20041;-85
2021/06/01 03:18:09;;;;;;;3.25;2.20;;;;;;;10.40;67.72;101384.06;4991507;28;20060;-85
2021/06/01 03:20:49;;;;;;;5.72;2.70;;;;;;;10.37;68.09;101387.53;4991579;28;20569;-86
2021/06/01 03:23:20;;;;;;;2.90;2.58;;;;;;;10.34;68.24;101382.28;4995382;28;20041;-85
2021/06/01 03:25:46;;;;;;;4.90;2.55;;;;;;;10.33;68.69;101387.50;5006780;28;20045;-86
2021/06/01 03:28:14;;;;;;;4.70;2.63;;;;;;;10.33;68.75;101384.91;4995399;28;20046;-86
2021/06/01 03:30:41;;;;;;;3.45;2.63;;;;;;;10.32;68.92;101385.75;4971146;28;20053;-86
2021/06/01 03:33:07;;;;;;;2.85;2.60;;;;;;;10.29;68.79;101381.38;4995850;28;21528;-85
2021/06/01 03:35:34;;;;;;;2.65;2.30;;;;;;;10.29;69.17;101378.75;4994796;28;20049;-85
2021/06/01 03:38:03;;;;;;;3.15;2.25;;;;;;;10.29;68.99;101378.75;4977489;28;20886;-86
2021/06/01 03:40:29;;;;;;;3.53;2.90;;;;;;;10.27;69.01;101386.63;5015545;28;20041;-86
2021/06/01 03:42:58;;;;;;;5.22;2.70;;;;;;;10.29;69.07;101385.75;5007593;28;21371;-85
2021/06/01 03:45:32;;;;;;;3.75;2.45;;;;;;;10.30;69.12;101380.53;5024807;28;20049;-86
2021/06/01 03:48:01;;;;;;;8.55;3.72;;;;;;;10.35;69.37;101384.06;5010002;28;22732;-84
2021/06/01 03:50:28;;;;;;;4.22;2.47;;;;;;;10.36;69.04;101382.31;5002616;28;20096;-85
2021/06/01 03:52:57;;;;;;;2.38;2.28;;;;;;;10.38;68.55;101376.22;4993563;28;20063;-86
2021/06/01 03:55:29;;;;;;;4.75;2.53;;;;;;;10.39;68.69;101375.34;4992565;28;20045;-85
2021/06/01 03:57:55;;;;;;;3.42;3.13;;;;;;;10.46;69.03;101384.09;4994178;28;20049;-86
2021/06/01 04:00:28;;;;;;;4.28;2.70;;;;;;;10.54;68.87;101373.66;4977984;28;20046;-85
2021/06/01 04:02:58;;;;;;;6.65;3.63;;;;;;;10.61;68.65;101366.69;4990650;28;20053;-86
2021/06/01 04:05:26;;;;;;;7.50;2.97;;;;;;;10.68;68.60;101371.06;4993911;28;20053;-85
2021/06/01 04:07:53;;;;;;;10.23;3.25;;;;;;;10.74;68.50;101373.69;5021660;28;20197;-86
2021/06/01 04:10:24;;;;;;;4.20;2.72;;;;;;;10.79;68.88;101366.72;5007101;28;20063;-85
2021/06/01 04:12:51;;;;;;;4.70;3.63;;;;;;;10.85;68.61;101364.09;4996674;28;20056;-85
2021/06/01 04:15:17;;;;;;;5.13;2.83;;;;;;;10.90;68.72;101370.22;5002180;28;23275;-85
2021/06/01 04:17:46;;;;;;;6.35;3.22;;;;;;;10.98;68.57;101365.00;5023668;28;20076;-85
2021/06/01 04:20:13;;;;;;;4.18;3.28;;;;;;;11.04;68.62;101370.25;5036591;28;20072;-85
2021/06/01 04:22:41;;;;;;;4.13;3.08;;;;;;;11.13;68.73;101368.50;5010587;28;20077;-85
2021/06/01 04:25:08;;;;;;;3.33;2.97;;;;;;;11.19;68.40;101365.88;5046882;28;20068;-86
2021/06/01 04:27:35;;;;;;;2.78;2.58;;;;;;;11.23;68.51;101371.09;5008799;28;20056;-85
2021/06/01 04:30:08;;;;;;;6.25;3.50;;;;;;;11.30;68.52;101376.34;5027014;28;20045;-85
2021/06/01 04:32:35;;;;;;;3.65;2.30;;;;;;;11.36;68.46;101374.59;5025824;28;20103;-85
2021/06/01 04:35:05;;;;;;;2.83;2.60;;;;;;;11.41;68.26;101366.75;5042671;28;20048;-85
2021/06/01 04:37:38;;;;;;;6.97;3.10;;;;;;;11.49;67.83;101367.59;5029390;28;20049;-85
2021/06/01 04:40:09;;;;;;;4.28;2.80;;;;;;;11.56;67.79;101368.47;5023731;28;20053;-85
2021/06/01 04:42:45;;;;;;;3.90;2.50;;;;;;;11.65;67.68;101365.81;5028364;28;20071;-83
2021/06/01 04:45:13;;;;;;;3.20;2.40;;;;;;;11.72;67.20;101370.19;4995482;28;20148;-82
2021/06/01 04:47:44;;;;;;;2.92;2.38;;;;;;;11.79;67.03;101367.56;5049543;28;20128;-83
2021/06/01 04:50:17;;;;;;;4.90;2.53;;;;;;;11.84;66.86;101364.03;5047867;28;20555;-82
2021/06/01 04:52:47;;;;;;;4.88;2.63;;;;;;;11.88;66.43;101364.91;5030688;28;20519;-84
2021/06/01 04:55:19;;;;;;;2.75;2.40;;;;;;;11.94;66.23;101364.88;5007382;28;20056;-83
2021/06/01 04:57:48;;;;;;;6.32;2.40;;;;;;;12.02;65.81;101371.00;5043412;28;20098;-84
2021/06/01 05:00:15;;;;;;;6.60;3.60;;;;;;;12.11;65.29;101371.84;5032938;28;20042;-84
2021/06/01 05:02:41;;;;;;;2.88;2.08;;;;;;;12.17;65.12;101369.22;5043372;28;20064;-84
2021/06/01 05:05:10;;;;;;;3.05;2.85;;;;;;;12.24;64.83;101370.91;4999388;28;20044;-84
2021/06/01 05:07:37;;;;;;;6.80;2.30;;;;;;;12.29;64.20;101370.91;5034880;28;20036;-84
2021/06/01 05:10:06;;;;;;;4.80;2.78;;;;;;;12.34;63.94;101370.00;5000928;28;20040;-84
2021/06/01 05:12:33;;;;;;;7.72;3.42;;;;;;;12.40;63.87;101374.38;5034034;28;20044;-84
2021/06/01 05:14:59;;;;;;;3.55;2.40;;;;;;;12.46;63.21;101376.94;5021594;28;20048;-83
2021/06/01 05:17:27;;;;;;;3.03;2.33;;;;;;;12.51;62.98;101376.94;5005838;28;20051;-85
2021/06/01 05:19:55;;;;;;;3.88;2.13;;;;;;;12.56;62.96;101376.00;5022316;28;20083;-85
2021/06/01 05:22:22;;;;;;;1.58;1.40;;;;;;;12.61;63.22;101376.00;5053052;28;20087;-86
2021/06/01 05:24:49;;;;;;;2.85;2.40;;;;;;;12.66;63.41;101376.84;5022553;28;20463;-86
2021/06/01 05:27:19;;;;;;;2.83;2.20;;;;;;;12.72;62.89;101373.28;5058585;28;20045;-86
2021/06/01 05:29:53;;;;;;;3.30;3.00;;;;;;;12.79;63.34;101377.63;5035492;28;20048;-83
2021/06/01 05:35:06;;;;;;;;;;;;;;;12.93;63.82;101377.53;5022334;28;20251;-82
2021/06/01 05:37:36;;;;;;;8.10;2.53;;;;;;;13.01;62.96;101378.38;5037774;28;19967;-85
2021/06/01 05:40:05;;;;;;;13.18;2.08;;;;;;;13.09;62.76;101378.31;5015159;28;20135;-85
2021/06/01 05:42:32;;;;;;;4.30;2.33;;;;;;;13.16;63.08;101372.09;5023043;28;20040;-83
2021/06/01 05:44:58;;;;;;;5.22;2.30;;;;;;;13.25;63.65;101373.78;5037126;28;20041;-85
2021/06/01 05:47:25;;;;;;;8.13;3.00;;;;;;;13.34;63.43;101375.47;5014573;28;20065;-85
2021/06/01 05:49:55;;;;;;;7.10;2.47;;;;;;;13.43;62.72;101382.41;5033997;28;20044;-85
2021/06/01 05:52:25;;;;;;;3.33;1.42;;;;;;;13.52;62.56;101372.69;5032419;28;20049;-85
2021/06/01 05:54:52;;;;;;;2.58;1.67;;;;;;;13.62;61.50;101381.34;5033496;28;20049;-84
2021/06/01 05:57:19;;;;;;;6.45;2.30;;;;;;;13.71;60.82;101375.13;5038955;28;20048;-85
2021/06/01 05:59:46;;;;;;;6.10;2.83;;;;;;;13.82;60.46;101373.28;5031797;28;20060;-83
2021/06/01 06:02:16;;;;;;;6.85;1.88;;;;;;;13.95;60.25;101376.66;5006659;28;20051;-83
2021/06/01 06:04:42;;;;;;;3.17;2.67;;;;;;;14.07;59.13;101376.47;5016411;28;20052;-85
2021/06/01 06:07:08;;;;;;;3.70;2.15;;;;;;;14.16;57.72;101380.78;5039216;28;20040;-86
2021/06/01 06:09:36;;;;;;;3.13;2.83;;;;;;;14.25;57.27;101384.19;5039277;28;20553;-83
2021/06/01 06:12:09;;;;;;;1.88;1.77;;;;;;;14.31;56.74;101384.09;5021442;28;20047;-83
2021/06/01 06:14:36;;;;;;;6.80;2.22;;;;;;;14.38;56.37;101381.38;5040601;28;20047;-82
2021/06/01 06:17:53;;;;;;;2.58;1.95;;;;;;;14.48;54.72;101379.47;5015102;28;20041;-83
2021/06/01 06:20:23;;;;;;;4.13;2.97;;;;;;;14.56;54.78;101382.91;5052534;28;20049;-84
2021/06/01 06:22:53;;;;;;;5.80;2.13;;;;;;;14.66;54.42;101385.44;5036684;28;20060;-85
2021/06/01 06:25:20;;;;;;;7.28;2.10;;;;;;;14.78;54.18;101385.25;5020908;28;20558;-83
2021/06/01 06:27:50;;;;;;;5.40;1.40;;;;;;;14.88;54.02;101386.84;5028251;28;20069;-83
2021/06/01 06:30:21;;;;;;;1.83;1.67;;;;;;;14.99;53.65;101381.44;5017231;28;21445;-85
2021/06/01 06:32:51;;;;;;;2.15;1.70;;;;;;;15.08;53.64;101385.66;5018841;28;20049;-82
2021/06/01 06:35:20;;;;;;;3.80;1.48;;;;;;;15.18;53.64;101384.63;5033280;28;20063;-83
2021/06/01 06:37:46;;;;;;;3.10;1.85;;;;;;;15.31;52.96;101387.94;5054613;28;20446;-84
2021/06/01 06:40:20;;;;;;;1.83;1.73;;;;;;;15.45;51.84;101390.34;5019363;28;20103;-85
2021/06/01 06:42:46;;;;;;;1.35;1.25;;;;;;;15.55;51.78;101389.28;5007661;28;20426;-84
2021/06/01 06:45:16;;;;;;;2.90;2.10;;;;;;;15.65;51.20;101378.56;5012807;28;20049;-84
2021/06/01 06:47:57;;;;;;;2.65;2.30;;;;;;;15.75;50.82;101388.03;5034702;28;20049;-84
2021/06/01 06:50:26;;;;;;;1.30;1.30;;;;;;;15.87;50.74;101381.69;5007035;28;20045;-84
2021/06/01 06:52:52;;;;;;;3.20;1.90;;;;;;;15.96;50.25;101392.06;5035509;28;20048;-83
2021/06/01 06:55:18;;;;;;;3.67;1.52;;;;;;;16.07;50.42;101388.34;4995698;28;20571;-83
2021/06/01 06:57:53;;;;;;;4.18;1.60;;;;;;;16.23;49.93;101384.50;5034790;28;20045;-83
2021/06/01 07:00:25;;;;;;;2.00;1.80;;;;;;;16.40;49.56;101385.91;5001810;28;20047;-83
2021/06/01 07:02:52;;;;;;;6.20;1.70;;;;;;;16.54;49.40;101378.53;5033653;28;20049;-83
2021/06/01 07:05:28;;;;;;;4.28;3.47;;;;;;;16.77;48.93;101380.66;5034932;28;20057;-84
2021/06/01 07:07:55;;;;;;;3.95;1.83;;;;;;;17.03;48.00;101374.78;5030383;28;20049;-83
2021/06/01 07:10:23;;;;;;;2.60;1.65;;;;;;;17.33;46.89;101368.78;5018001;28;20503;-83
2021/06/01 07:12:52;;;;;;;3.05;1.90;;;;;;;17.60;45.96;101371.59;5033449;28;20099;-84
2021/06/01 07:15:26;;;;;;;2.45;1.58;;;;;;;17.86;43.87;101362.97;5036666;28;20619;-83
2021/06/01 07:17:56;;;;;;;4.15;3.03;;;;;;;18.13;43.52;101366.63;5030449;28;20047;-84
2021/06/01 07:20:31;;;;;;;1.65;1.55;;;;;;;18.46;42.61;101363.88;5034647;28;20479;-84
2021/06/01 07:22:58;;;;;;;2.28;2.08;;;;;;;18.90;41.70;101357.25;5016692;28;20060;-84
2021/06/01 07:25:25;;;;;;;3.92;2.08;;;;;;;19.47;40.46;101353.53;5014859;28;20053;-84
2021/06/01 07:27:55;;;;;;;1.80;1.60;;;;;;;20.12;38.92;101350.38;5034543;28;20416;-86
2021/06/01 07:30:24;;;;;;;3.17;1.50;;;;;;;20.65;37.51;101349.19;5047621;28;20114;-86
2021/06/01 07:32:51;;;;;;;1.48;1.20;;;;;;;21.04;36.03;101352.97;5033293;28;20478;-85
2021/06/01 07:35:20;;;;;;;2.95;1.42;;;;;;;21.32;35.16;101350.84;5035405;28;20095;-85
2021/06/01 07:37:52;;;;;;;2.50;1.42;;;;;;;21.65;34.12;101354.81;5023944;28;20753;-84
2021/06/01 07:40:22;;;;;;;2.22;1.10;;;;;;;21.99;34.22;101355.97;5017744;28;20059;-85
2021/06/01 07:42:48;;;;;;;1.73;1.63;;;;;;;22.34;33.39;101360.59;5031526;28;20116;-83
2021/06/01 07:45:14;;;;;;;1.40;1.30;;;;;;;22.76;32.83;101357.72;5001443;28;20518;-83
2021/06/01 07:47:42;;;;;;;2.65;1.52;;;;;;;23.20;32.12;101353.78;5035072;28;20045;-83
2021/06/01 07:50:12;;;;;;;3.38;1.80;;;;;;;23.50;31.11;101349.59;5032950;28;20049;-83
2021/06/01 07:52:38;;;;;;;1.20;1.10;;;;;;;23.71;30.99;101348.44;5035396;28;20049;-83
2021/06/01 07:55:07;;;;;;;5.28;3.63;;;;;;;23.89;30.23;101348.44;5016517;28;20051;-83
2021/06/01 07:57:34;;;;;;;3.88;1.48;;;;;;;24.17;30.15;101338.91;5002191;28;20045;-84
2021/06/01 08:00:01;;;;;;;4.20;1.83;;;;;;;24.52;30.05;101341.44;5036462;28;20056;-84
2021/06/01 08:02:28;;;;;;;3.72;2.20;;;;;;;25.04;29.46;101345.59;5013292;28;20148;-83
2021/06/01 08:04:57;;;;;;;2.10;1.73;;;;;;;25.50;28.85;101342.00;5027342;28;20044;-84
2021/06/01 08:07:27;;;;;;;2.60;1.75;;;;;;;25.79;28.47;101342.91;5022187;28;20752;-85
2021/06/01 08:09:53;;;;;;;5.47;2.03;;;;;;;25.80;28.23;101344.63;5049561;28;20137;-84
2021/06/01 08:12:19;;;;;;;1.77;1.67;;;;;;;25.83;27.77;101335.53;5019715;28;20119;-84
2021/06/01 08:14:53;;;;;;;2.83;1.50;;;;;;;26.12;27.90;101339.06;5049211;28;20083;-84
2021/06/01 08:17:21;;;;;;;2.10;1.63;;;;;;;26.39;27.65;101325.69;5014636;28;20045;-83
2021/06/01 08:19:48;;;;;;;1.40;1.30;;;;;;;26.82;26.86;101322.03;5015875;28;20443;-84
2021/06/01 08:22:30;;;;;;;1.75;1.65;;;;;;;26.96;26.67;101330.97;5037247;28;20048;-84
2021/06/01 08:24:59;;;;;;;3.65;2.08;;;;;;;27.02;26.60;101328.72;5053177;28;20053;-84
2021/06/01 08:27:27;;;;;;;2.25;2.05;;;;;;;27.26;26.42;101322.66;5009281;28;20325;-84
2021/06/01 08:30:02;;;;;;;2.58;1.85;;;;;;;27.96;25.47;101324.03;5037105;28;20056;-84
2021/06/01 08:32:37;;;;;;;2.75;1.90;;;;;;;28.76;24.48;101327.25;5025589;28;21132;-86
2021/06/01 08:35:11;;;;;;;3.90;2.00;;;;;;;29.35;24.18;101332.63;5053413;28;20072;-85
2021/06/01 08:37:39;;;;;;;3.78;2.28;;;;;;;29.87;23.09;101324.13;5052710;28;20482;-86
2021/06/01 08:40:08;;;;;;;2.85;2.38;;;;;;;29.92;22.69;101321.91;5007640;28;20156;-84
2021/06/01 08:42:39;;;;;;;6.15;2.22;;;;;;;30.06;22.73;101318.06;5050010;28;20048;-84
2021/06/01 08:45:10;;;;;;;4.50;3.92;;;;;;;29.95;22.18;101321.66;5047015;28;20040;-85
2021/06/01 08:47:39;;;;;;;2.97;2.67;;;;;;;29.99;21.74;101312.31;5050805;28;20102;-87
2021/06/01 08:50:13;;;;;;;2.05;1.95;;;;;;;30.34;21.38;101316.66;5053024;28;20056;-87
2021/06/01 08:52:40;;;;;;;2.70;2.40;;;;;;;30.82;21.39;101311.84;5020037;28;20045;-85
2021/06/01 08:55:11;;;;;;;3.03;2.22;;;;;;;31.15;20.61;101308.16;5038363;28;20132;-85
2021/06/01 08:57:41;;;;;;;2.38;2.17;;;;;;;30.96;20.36;101310.69;5029550;28;20609;-85
2021/06/01 09:00:11;;;;;;;3.70;2.35;;;;;;;30.72;21.14;101300.97;5033518;28;20117;-86
2021/06/01 09:02:41;;;;;;;3.47;2.78;;;;;;;30.28;21.84;101302.81;5033271;28;20085;-85
2021/06/01 09:05:14;;;;;;;2.63;2.17;;;;;;;30.22;21.98;101308.72;5043012;28;20087;-85
2021/06/01 09:07:53;;;;;;;3.00;2.70;;;;;;;29.93;21.98;101299.31;5033179;28;20134;-85
2021/06/01 09:10:32;;;;;;;3.45;2.35;;;;;;;29.77;22.56;101305.06;5026388;28;20053;-83
2021/06/01 09:21:46;;;;;;;3.05;2.63;;;;;;;29.55;22.72;101300.53;5033398;28;20166;-85
2021/06/01 09:24:15;;;;;;;3.15;2.75;;;;;;;29.51;22.54;101293.66;5035056;28;20083;-85
2021/06/01 09:27:02;;;;;;;3.53;3.03;;;;;;;29.59;22.98;101296.59;5034797;28;20412;-85
2021/06/01 09:29:37;;;;;;;7.68;3.15;;;;;;;29.74;22.62;101296.34;5048218;28;20049;-85
2021/06/01 09:32:16;;;;;;;8.10;7.30;;;;;;;30.19;22.54;101289.09;5031848;28;20072;-84
2021/06/01 09:34:52;;;;;;;6.28;3.22;;;;;;;31.09;21.53;101283.47;5029745;28;20527;-83
2021/06/01 09:37:24;;;;;;;4.45;3.08;;;;;;;32.12;20.82;101282.53;5034053;28;20123;-84
2021/06/01 09:40:17;;;;;;;7.30;3.38;;;;;;;32.78;19.81;101283.75;5035124;28;20164;-83
2021/06/01 09:42:50;;;;;;;6.35;2.75;;;;;;;33.22;19.14;101280.53;5031842;28;20438;-84
2021/06/01 09:45:21;;;;;;;3.35;2.42;;;;;;;33.50;19.10;101279.75;5032610;28;20100;-86
2021/06/01 09:48:05;;;;;;;7.30;3.17;;;;;;;33.87;18.11;101271.59;5027206;28;20140;-84
2021/06/01 09:50:43;;;;;;;5.05;2.80;;;;;;;34.22;18.55;101278.06;5030575;28;20049;-86
2021/06/01 09:53:23;;;;;;;4.85;2.88;;;;;;;34.60;17.83;101270.66;5030540;28;20084;-85
2021/06/01 09:55:49;;;;;;;8.05;3.13;;;;;;;34.48;17.48;101274.63;5016987;28;20079;-85
2021/06/01 09:58:28;;;;;;;6.95;2.50;;;;;;;34.55;17.21;101273.00;5036630;28;20120;-85
2021/06/01 10:00:58;;;;;;;5.55;3.00;;;;;;;34.35;17.74;101276.88;5028001;28;20045;-86
2021/06/01 10:03:33;;;;;;;5.88;2.55;;;;;;;34.74;17.50;101266.50;5019476;28;20499;-84
2021/06/01 10:06:03;;;;;;;2.75;2.40;;;;;;;34.72;17.43;101262.22;5034405;28;20636;-85
2021/06/01 10:08:32;;;;;;;4.60;4.13;;;;;;;34.98;17.05;101258.72;5034292;28;20048;-83
2021/06/01 10:11:05;;;;;;;2.85;2.60;;;;;;;35.66;16.66;101263.38;5034871;28;20106;-84
2021/06/01 10:13:35;;;;;;;5.00;2.50;;;;;;;36.03;15.77;101256.69;5003847;28;20398;-84
2021/06/01 10:16:10;;;;;;;3.55;2.22;;;;;;;36.30;15.51;101254.72;5020539;28;20076;-85
2021/06/01 10:18:40;;;;;;;2.83;2.42;;;;;;;36.47;15.41;101252.88;5050645;28;20554;-85
2021/06/01 10:21:24;;;;;;;;;;;;;;;;;;;;;
2021/06/01 10:24:04;;;;;;;;;;;;;;;;;;;;;
2021/06/01 10:26:32;;;;;;;3.75;2.10;;;;;;;36.90;15.41;101245.38;5022339;28;20041;-85
2021/06/01 10:32:46;;;;;;;3.13;2.83;;;;;;;37.76;14.13;101238.41;5036856;28;20040;-85
2021/06/01 10:35:21;;;;;;;3.75;2.25;;;;;;;37.88;14.34;101235.13;5026018;28;20053;-83
2021/06/01 10:50:31;;;;;;;2.40;2.20;;;;;;;37.00;14.97;101212.44;5027581;28;20047;-86
2021/06/01 10:53:17;;;;;;;3.60;2.42;;;;;;;36.64;15.37;101214.69;5037367;28;20083;-85
2021/06/01 10:55:54;;;;;;;3.08;2.33;;;;;;;36.26;14.89;101224.19;5020455;28;20069;-85
2021/06/01 10:58:39;;;;;;;3.33;2.22;;;;;;;36.65;14.84;101213.66;5026853;28;20549;-86
2021/06/01 11:04:27;;;;;;;3.22;2.38;;;;;;;35.47;15.54;101212.75;5036543;28;20044;-85
2021/06/01 11:06:59;;;;;;;5.47;2.30;;;;;;;34.91;15.85;101204.94;5050530;28;20144;-85
2021/06/01 11:09:34;;;;;;;3.77;2.87;;;;;;;34.85;16.31;101202.03;5036732;28;20053;-85
2021/06/01 11:12:16;;;;;;;6.82;1.95;;;;;;;35.37;15.28;101199.28;5051206;28;20059;-85
2021/06/01 11:14:50;;;;;;;3.35;2.60;;;;;;;35.76;15.35;101198.72;5034127;28;20067;-85
2021/06/01 11:17:41;;;;;;;4.68;2.95;;;;;;;36.61;15.17;101188.63;5034793;28;20207;-84
2021/06/01 11:20:17;;;;;;;6.68;2.25;;;;;;;37.35;14.02;101188.47;5021550;28;20090;-85
2021/06/01 11:23:09;;;;;;;4.90;4.50;;;;;;;37.39;14.00;101188.94;5038327;28;20072;-84
2021/06/01 11:34:40;;;;;;;3.55;2.28;;;;;;;37.00;14.26;101187.88;5035871;28;20029;-84
2021/06/01 11:37:22;;;;;;;2.15;1.83;;;;;;;38.24;13.97;101184.50;5003965;28;20069;-84
2021/06/01 11:40:10;;;;;;;4.07;1.92;;;;;;;39.01;13.48;101179.88;5019617;28;20106;-85
2021/06/01 11:42:52;;;;;;;2.13;2.00;;;;;;;40.09;12.76;101177.41;5023870;28;20041;-85
2021/06/01 11:45:22;;;;;;;3.13;2.03;;;;;;;40.96;12.11;101178.06;5026401;28;20052;-87
2021/06/01 11:48:09;;;;;;;2.08;1.90;;;;;;;40.96;11.30;101179.97;5022472;28;20107;-85
2021/06/01 11:53:20;;;;;;;1.85;1.75;;;;;;;39.92;11.44;101174.03;5021418;28;20044;-84
2021/06/01 11:55:58;;;;;;;3.22;2.10;;;;;;;39.99;11.38;101171.38;5006043;28;20049;-84
2021/06/01 12:04:11;;;;;;;4.20;2.72;;;;;;;40.43;11.29;101161.19;5037790;28;20118;-85
2021/06/01 12:12:52;;;;;;;2.55;1.73;;;;;;;40.51;11.75;101152.84;5005454;28;20052;-85
2021/06/01 12:18:27;;;;;;;2.25;2.05;;;;;;;41.04;10.92;101146.00;5051210;28;20047;-85
2021/06/01 12:21:03;;;;;;;2.40;2.30;;;;;;;41.43;10.83;101136.25;5001569;28;20037;-85
2021/06/01 12:23:43;;;;;;;1.85;1.75;;;;;;;41.93;10.24;101138.69;5003979;28;20072;-85
2021/06/01 12:26:25;;;;;;;2.15;2.00;;;;;;;42.17;10.07;101134.47;5034052;28;20075;-85
2021/06/01 12:32:28;;;;;;;2.17;1.88;;;;;;;43.04;9.73;101126.06;5034028;28;20041;-84
2021/06/01 12:35:11;;;;;;;2.22;2.08;;;;;;;42.81;9.52;101138.41;5051960;28;20091;-85
2021/06/01 12:43:43;;;;;;;2.53;2.00;;;;;;;40.06;11.24;101125.66;4981113;28;20055;-84
2021/06/01 12:46:29;;;;;;;2.65;2.55;;;;;;;40.10;11.16;101116.00;5018450;28;20072;-85
2021/06/01 13:20:48;;;;;;;;;;;;;;;42.50;9.35;101092.31;5035187;28;20123;-86
2021/06/01 13:40:43;;;;;;;2.45;2.25;;;;;;;42.58;10.28;101067.34;5035996;28;20049;-84
2021/06/01 13:46:22;;;;;;;2.53;2.20;;;;;;;37.65;13.28;101065.72;5037334;28;20669;-84
2021/06/01 13:49:02;;;;;;;3.85;2.90;;;;;;;34.76;16.01;101054.25;5024947;28;20057;-85
2021/06/01 13:51:42;;;;;;;4.22;2.35;;;;;;;34.55;16.46;101052.81;5051702;28;20045;-84